Hauptseite
METAR-TAF:

METAR-TAF

Flughäfen :

Flughafen Kerry

Killarney, Irland

Breite: 52-10-51N, Länge: 9-31-26W, Höhe: 34 m

Beobachtung

Neuester Wetterbericht von vor 35 Minuten, um 15:00 UTC
Wind 9 kt aus Ost, variierte zwischen Ost/Nordost und Südost
Temperatur 16°C
Luftfeuchtigkeit 88%
Luftdruck 1014 hPa
Sichtweite 10 km oder mehr
Geschlossene Wolkendecke in der Höhe von 1200 ft

METAR: EIKY 271500Z 09009KT 070V130 9999 OVC012 16/14 Q1014

Zeit: 16:35 (15:35 UTC)


TAF: fehlend

Wetterbeobachtungen und Prognosen von mehr als 4000 Flughäfen (METAR und TAF Bericht).

Die verfügbaren Stationen werden durch gelbe und rote Markierungen auf der Karte dargestellt.

Führen Sie die Maus auf sie, um den Namen der Station zu sehen.

Darauf klicken, um die Beobachtung von Wetterbeobachtungen und Prognosen zu sehen.

Um die Karte zu ändern : klicken Sie auf den grünen Tasten mit einem schwarzen Kreuz Zum Vergrößern, auf den grünen Button mit einem Gedankenstrich zu verkleinern, oder auf die grünen Pfeile für benachbarte Karten.


METAR-TAF: